Machens, Missouri
Current Conditions -  °F | °C
As of 3:54 PM on Monday 26 Jan 2015 (Local Time) from KSET Reporting Station
Overcast Overcast  
Wind Chill: 33°   Ceiling: 3900
Heat Index: 37°   Visibility: 10mi
Dew Point: 30°   Wind: 5mph
Humidity: 76%   Direction: 110°ESE
Pressure: 29.88"   Gusts: NA
Location:  38.9266°N, 90.3904°W
Report Text: KSET 262154Z AUTO 11004KT 10SM OVC039 03/M01 A2988 RMK AO2 SLP121 T00281011
Loading
Personal Weather Stations






























Interactive Weather Map New forecast layout! Learn more

10-Day Weather Forecast

Advertisements
Track Severe Weather on mobile